Date,TemperatureHighF,TemperatureAvgF,TemperatureLowF,DewpointHighF,DewpointAvgF,DewpointLowF,HumidityHigh,HumidityAvg,HumidityLow,PressureMaxIn,PressureMinIn,WindSpeedMaxMPH,WindSpeedAvgMPH,GustSpeedMaxMPH,PrecipitationSumIn
2013-7-1,87,83,80,79,77,75,90,83,74,30.03,29.92,10,5,14,0.00
2013-7-2,87,82,77,80,77,73,90,85,76,30.11,29.98,7,3,13,0.24
2013-7-3,87,82,79,78,77,74,90,84,75,30.13,30.05,9,4,14,0.05
2013-7-4,84,82,81,77,76,75,86,83,77,30.13,30.07,4,2,8,0.01
2013-7-5,86,83,79,79,76,73,90,82,73,30.14,30.05,6,3,9,0.55
2013-7-6,88,84,80,78,76,73,85,78,68,30.12,30.02,4,3,9,0.03
2013-7-7,87,84,81,78,76,75,84,78,72,30.09,30.02,5,3,14,0.03
2013-7-8,88,85,81,76,75,74,80,72,66,30.15,30.07,4,3,6,0.00
2013-7-9,86,81,75,77,74,71,95,80,68,30.14,30.05,5,2,8,0.26
2013-7-10,85,79,74,78,75,72,95,86,76,30.08,30.00,4,1,9,0.05
2013-7-11,88,84,81,79,76,73,87,78,70,30.04,29.95,6,2,8,0.00
2013-7-12,88,81,76,78,75,70,92,81,66,29.99,29.91,8,1,10,0.11
2013-7-13,86,76,72,77,73,70,98,92,73,30.03,29.92,7,1,12,5.69
2013-7-14,87,79,72,77,74,70,98,86,67,30.09,29.99,7,2,11,0.43
2013-7-15,87,81,75,77,74,71,96,80,67,30.09,30.01,4,2,7,0.03
2013-7-16,82,79,73,75,73,70,95,84,68,30.14,30.04,7,4,16,1.87
2013-7-17,79,76,72,76,73,71,96,91,83,30.15,30.04,7,2,11,3.49
2013-7-18,84,76,72,79,74,70,97,93,78,30.13,30.05,4,1,5,1.59
2013-7-19,78,77,75,76,74,74,96,92,90,30.10,30.08,1,0,1,0.00
2013-7-20,86,83,78,80,77,71,90,83,69,30.12,30.04,10,3,0,0.00
2013-7-21,87,83,79,80,78,75,90,84,78,30.15,30.05,6,2,0,0.00
2013-7-22,87,84,81,78,77,75,88,80,70,30.15,30.07,8,3,9,0.00
2013-7-23,88,83,78,79,76,74,93,81,67,30.12,29.98,10,3,11,0.23
2013-7-24,91,84,79,80,76,72,92,77,58,30.03,29.91,8,3,11,0.00
2013-7-25,94,85,77,78,75,73,90,73,53,30.02,29.92,6,3,11,0.00
2013-7-26,93,83,76,80,76,73,92,81,59,30.03,29.93,8,3,11,0.17
2013-7-27,86,80,76,80,76,74,95,89,82,30.02,29.94,6,1,8,0.73
2013-7-28,89,83,76,78,76,74,93,82,68,30.08,29.96,5,2,8,0.01
2013-7-29,90,84,79,80,78,76,93,81,70,30.13,30.01,5,2,8,0.00
2013-7-30,88,84,78,80,78,74,93,83,74,30.17,30.07,5,2,7,0.83
2013-7-31,89,85,82,80,77,75,86,77,68,30.11,30.00,4,3,10,0.00